sensor_id;sensor_type;location;lat;lon;timestamp;P1;durP1;ratioP1;P2;durP2;ratioP2
22543;SDS011;11438;52.044;8.716;2023-08-17T00:02:14;2.53;;;1.02;;
22543;SDS011;11438;52.044;8.716;2023-08-17T00:04:40;2.75;;;1.25;;
22543;SDS011;11438;52.044;8.716;2023-08-17T00:07:05;4.80;;;1.50;;
22543;SDS011;11438;52.044;8.716;2023-08-17T00:09:31;2.40;;;1.10;;
22543;SDS011;11438;52.044;8.716;2023-08-17T00:11:57;4.53;;;1.48;;
22543;SDS011;11438;52.044;8.716;2023-08-17T00:14:23;2.67;;;1.10;;
22543;SDS011;11438;52.044;8.716;2023-08-17T00:16:50;3.30;;;1.17;;
22543;SDS011;11438;52.044;8.716;2023-08-17T00:19:16;3.92;;;1.13;;
22543;SDS011;11438;52.044;8.716;2023-08-17T00:21:41;4.20;;;1.30;;
22543;SDS011;11438;52.044;8.716;2023-08-17T00:24:09;4.10;;;1.33;;
22543;SDS011;11438;52.044;8.716;2023-08-17T00:26:35;3.65;;;1.30;;
22543;SDS011;11438;52.044;8.716;2023-08-17T00:29:00;2.50;;;1.20;;
22543;SDS011;11438;52.044;8.716;2023-08-17T00:31:26;4.38;;;1.25;;
22543;SDS011;11438;52.044;8.716;2023-08-17T00:33:51;1.38;;;0.90;;
22543;SDS011;11438;52.044;8.716;2023-08-17T00:36:17;2.15;;;1.17;;
22543;SDS011;11438;52.044;8.716;2023-08-17T00:38:42;3.95;;;1.27;;
22543;SDS011;11438;52.044;8.716;2023-08-17T00:41:08;4.15;;;1.20;;
22543;SDS011;11438;52.044;8.716;2023-08-17T00:43:33;2.17;;;0.98;;
22543;SDS011;11438;52.044;8.716;2023-08-17T00:45:59;6.00;;;1.58;;
22543;SDS011;11438;52.044;8.716;2023-08-17T00:48:25;3.00;;;1.08;;
22543;SDS011;11438;52.044;8.716;2023-08-17T00:50:53;3.35;;;1.23;;
22543;SDS011;11438;52.044;8.716;2023-08-17T00:53:20;3.42;;;1.23;;
22543;SDS011;11438;52.044;8.716;2023-08-17T00:55:46;2.28;;;1.30;;
22543;SDS011;11438;52.044;8.716;2023-08-17T00:58:12;4.00;;;1.30;;
22543;SDS011;11438;52.044;8.716;2023-08-17T01:00:39;3.15;;;1.40;;
22543;SDS011;11438;52.044;8.716;2023-08-17T01:03:05;3.08;;;1.40;;
22543;SDS011;11438;52.044;8.716;2023-08-17T01:05:31;4.78;;;1.50;;
22543;SDS011;11438;52.044;8.716;2023-08-17T01:07:58;3.78;;;1.70;;
22543;SDS011;11438;52.044;8.716;2023-08-17T01:10:25;2.75;;;1.45;;
22543;SDS011;11438;52.044;8.716;2023-08-17T01:12:59;4.72;;;1.45;;
22543;SDS011;11438;52.044;8.716;2023-08-17T01:15:35;2.70;;;1.50;;
22543;SDS011;11438;52.044;8.716;2023-08-17T01:20:47;4.00;;;1.42;;
22543;SDS011;11438;52.044;8.716;2023-08-17T01:23:14;2.97;;;1.50;;
22543;SDS011;11438;52.044;8.716;2023-08-17T01:25:39;4.45;;;1.60;;
22543;SDS011;11438;52.044;8.716;2023-08-17T01:28:05;4.13;;;1.50;;
22543;SDS011;11438;52.044;8.716;2023-08-17T01:30:33;3.47;;;1.77;;
22543;SDS011;11438;52.044;8.716;2023-08-17T01:33:09;3.42;;;1.60;;
22543;SDS011;11438;52.044;8.716;2023-08-17T01:38:18;4.20;;;1.63;;
22543;SDS011;11438;52.044;8.716;2023-08-17T01:40:47;3.33;;;1.60;;
22543;SDS011;11438;52.044;8.716;2023-08-17T01:43:14;10.77;;;1.75;;
22543;SDS011;11438;52.044;8.716;2023-08-17T01:45:41;4.03;;;1.88;;
22543;SDS011;11438;52.044;8.716;2023-08-17T01:48:07;4.07;;;1.65;;
22543;SDS011;11438;52.044;8.716;2023-08-17T01:50:33;4.50;;;1.92;;
22543;SDS011;11438;52.044;8.716;2023-08-17T01:52:58;3.30;;;1.60;;
22543;SDS011;11438;52.044;8.716;2023-08-17T01:55:24;3.53;;;1.77;;
22543;SDS011;11438;52.044;8.716;2023-08-17T01:57:49;4.20;;;1.77;;
22543;SDS011;11438;52.044;8.716;2023-08-17T02:00:15;8.80;;;1.95;;
22543;SDS011;11438;52.044;8.716;2023-08-17T02:02:41;3.55;;;1.85;;
22543;SDS011;11438;52.044;8.716;2023-08-17T02:05:07;6.20;;;2.00;;
22543;SDS011;11438;52.044;8.716;2023-08-17T02:07:33;4.20;;;1.92;;
22543;SDS011;11438;52.044;8.716;2023-08-17T02:09:58;4.72;;;1.70;;
22543;SDS011;11438;52.044;8.716;2023-08-17T02:12:24;3.17;;;1.55;;
22543;SDS011;11438;52.044;8.716;2023-08-17T02:14:49;4.93;;;1.92;;
22543;SDS011;11438;52.044;8.716;2023-08-17T02:17:15;4.35;;;1.63;;
22543;SDS011;11438;52.044;8.716;2023-08-17T02:19:42;3.63;;;2.00;;
22543;SDS011;11438;52.044;8.716;2023-08-17T02:22:09;3.50;;;1.75;;
22543;SDS011;11438;52.044;8.716;2023-08-17T02:24:35;2.05;;;1.45;;
22543;SDS011;11438;52.044;8.716;2023-08-17T02:27:00;2.70;;;1.70;;
22543;SDS011;11438;52.044;8.716;2023-08-17T02:29:26;3.53;;;2.47;;
22543;SDS011;11438;52.044;8.716;2023-08-17T02:31:51;4.47;;;2.20;;
22543;SDS011;11438;52.044;8.716;2023-08-17T02:34:17;3.20;;;1.92;;
22543;SDS011;11438;52.044;8.716;2023-08-17T02:36:42;5.22;;;2.10;;
22543;SDS011;11438;52.044;8.716;2023-08-17T02:39:08;3.42;;;1.75;;
22543;SDS011;11438;52.044;8.716;2023-08-17T02:41:33;4.95;;;1.77;;
22543;SDS011;11438;52.044;8.716;2023-08-17T02:43:59;3.08;;;1.98;;
22543;SDS011;11438;52.044;8.716;2023-08-17T02:46:26;5.60;;;1.95;;
22543;SDS011;11438;52.044;8.716;2023-08-17T02:48:51;4.10;;;1.98;;
22543;SDS011;11438;52.044;8.716;2023-08-17T02:51:18;4.45;;;2.05;;
22543;SDS011;11438;52.044;8.716;2023-08-17T02:53:43;4.88;;;2.00;;
22543;SDS011;11438;52.044;8.716;2023-08-17T02:56:09;5.28;;;2.40;;
22543;SDS011;11438;52.044;8.716;2023-08-17T02:58:37;3.67;;;1.95;;
22543;SDS011;11438;52.044;8.716;2023-08-17T03:01:05;2.80;;;1.80;;
22543;SDS011;11438;52.044;8.716;2023-08-17T03:03:31;3.17;;;1.90;;
22543;SDS011;11438;52.044;8.716;2023-08-17T03:05:57;5.95;;;2.05;;
22543;SDS011;11438;52.044;8.716;2023-08-17T03:08:22;4.28;;;2.10;;
22543;SDS011;11438;52.044;8.716;2023-08-17T03:10:48;4.53;;;2.30;;
22543;SDS011;11438;52.044;8.716;2023-08-17T03:13:13;4.93;;;2.13;;
22543;SDS011;11438;52.044;8.716;2023-08-17T03:15:39;3.28;;;1.98;;
22543;SDS011;11438;52.044;8.716;2023-08-17T03:18:05;4.10;;;2.15;;
22543;SDS011;11438;52.044;8.716;2023-08-17T03:20:31;4.93;;;2.20;;
22543;SDS011;11438;52.044;8.716;2023-08-17T03:22:56;3.40;;;1.70;;
22543;SDS011;11438;52.044;8.716;2023-08-17T03:25:22;4.05;;;1.88;;
22543;SDS011;11438;52.044;8.716;2023-08-17T03:27:47;5.55;;;3.15;;
22543;SDS011;11438;52.044;8.716;2023-08-17T03:30:13;3.00;;;1.90;;
22543;SDS011;11438;52.044;8.716;2023-08-17T03:32:38;4.93;;;2.30;;
22543;SDS011;11438;52.044;8.716;2023-08-17T03:35:04;4.25;;;1.90;;
22543;SDS011;11438;52.044;8.716;2023-08-17T03:37:30;3.00;;;2.03;;
22543;SDS011;11438;52.044;8.716;2023-08-17T03:39:56;4.00;;;2.22;;
22543;SDS011;11438;52.044;8.716;2023-08-17T03:42:21;4.30;;;2.50;;
22543;SDS011;11438;52.044;8.716;2023-08-17T03:44:47;5.47;;;2.58;;
22543;SDS011;11438;52.044;8.716;2023-08-17T03:47:12;4.38;;;2.33;;
22543;SDS011;11438;52.044;8.716;2023-08-17T03:49:39;4.20;;;2.80;;
22543;SDS011;11438;52.044;8.716;2023-08-17T03:52:05;5.65;;;2.60;;
22543;SDS011;11438;52.044;8.716;2023-08-17T03:54:30;3.63;;;2.42;;
22543;SDS011;11438;52.044;8.716;2023-08-17T03:56:56;7.05;;;2.67;;
22543;SDS011;11438;52.044;8.716;2023-08-17T03:59:21;3.92;;;2.30;;
22543;SDS011;11438;52.044;8.716;2023-08-17T04:01:47;3.70;;;2.53;;
22543;SDS011;11438;52.044;8.716;2023-08-17T04:04:12;5.00;;;2.70;;
22543;SDS011;11438;52.044;8.716;2023-08-17T04:06:38;3.58;;;2.50;;
22543;SDS011;11438;52.044;8.716;2023-08-17T04:09:04;4.68;;;2.75;;
22543;SDS011;11438;52.044;8.716;2023-08-17T04:11:30;5.00;;;2.40;;
22543;SDS011;11438;52.044;8.716;2023-08-17T04:13:55;4.53;;;2.28;;
22543;SDS011;11438;52.044;8.716;2023-08-17T04:16:21;3.38;;;2.28;;
22543;SDS011;11438;52.044;8.716;2023-08-17T04:18:46;4.57;;;2.63;;
22543;SDS011;11438;52.044;8.716;2023-08-17T04:21:12;3.80;;;2.45;;
22543;SDS011;11438;52.044;8.716;2023-08-17T04:23:37;4.20;;;2.55;;
22543;SDS011;11438;52.044;8.716;2023-08-17T04:26:03;6.20;;;2.38;;
22543;SDS011;11438;52.044;8.716;2023-08-17T04:28:28;3.67;;;2.25;;
22543;SDS011;11438;52.044;8.716;2023-08-17T04:30:54;5.90;;;2.58;;
22543;SDS011;11438;52.044;8.716;2023-08-17T04:33:19;4.18;;;2.45;;
22543;SDS011;11438;52.044;8.716;2023-08-17T04:35:48;4.93;;;2.83;;
22543;SDS011;11438;52.044;8.716;2023-08-17T04:38:13;3.78;;;2.33;;
22543;SDS011;11438;52.044;8.716;2023-08-17T04:40:39;4.78;;;2.78;;
22543;SDS011;11438;52.044;8.716;2023-08-17T04:43:05;5.03;;;2.50;;
22543;SDS011;11438;52.044;8.716;2023-08-17T04:45:30;3.60;;;2.55;;
22543;SDS011;11438;52.044;8.716;2023-08-17T04:47:56;4.13;;;2.53;;
22543;SDS011;11438;52.044;8.716;2023-08-17T04:50:21;3.97;;;2.50;;
22543;SDS011;11438;52.044;8.716;2023-08-17T04:52:47;3.17;;;2.63;;
22543;SDS011;11438;52.044;8.716;2023-08-17T04:55:13;4.32;;;2.75;;
22543;SDS011;11438;52.044;8.716;2023-08-17T04:57:39;4.07;;;2.97;;
22543;SDS011;11438;52.044;8.716;2023-08-17T05:00:04;7.65;;;3.08;;
22543;SDS011;11438;52.044;8.716;2023-08-17T05:02:34;5.53;;;3.20;;
22543;SDS011;11438;52.044;8.716;2023-08-17T05:05:02;6.20;;;2.88;;
22543;SDS011;11438;52.044;8.716;2023-08-17T05:07:31;4.82;;;2.58;;
22543;SDS011;11438;52.044;8.716;2023-08-17T05:09:57;4.88;;;2.85;;
22543;SDS011;11438;52.044;8.716;2023-08-17T05:12:23;4.80;;;2.97;;
22543;SDS011;11438;52.044;8.716;2023-08-17T05:14:48;4.68;;;2.90;;
22543;SDS011;11438;52.044;8.716;2023-08-17T05:17:14;5.03;;;3.75;;
22543;SDS011;11438;52.044;8.716;2023-08-17T05:19:39;4.43;;;3.13;;
22543;SDS011;11438;52.044;8.716;2023-08-17T05:22:09;8.63;;;4.53;;
22543;SDS011;11438;52.044;8.716;2023-08-17T05:24:35;5.00;;;3.97;;
22543;SDS011;11438;52.044;8.716;2023-08-17T05:27:01;6.47;;;4.22;;
22543;SDS011;11438;52.044;8.716;2023-08-17T05:29:26;6.50;;;4.40;;
22543;SDS011;11438;52.044;8.716;2023-08-17T05:31:52;6.90;;;3.45;;
22543;SDS011;11438;52.044;8.716;2023-08-17T05:34:18;10.55;;;3.65;;
22543;SDS011;11438;52.044;8.716;2023-08-17T05:36:43;6.47;;;3.90;;
22543;SDS011;11438;52.044;8.716;2023-08-17T05:39:09;7.63;;;4.13;;
22543;SDS011;11438;52.044;8.716;2023-08-17T05:41:34;7.93;;;4.20;;
22543;SDS011;11438;52.044;8.716;2023-08-17T05:44:00;6.55;;;4.15;;
22543;SDS011;11438;52.044;8.716;2023-08-17T05:46:25;5.50;;;3.92;;
22543;SDS011;11438;52.044;8.716;2023-08-17T05:48:51;6.45;;;4.10;;
22543;SDS011;11438;52.044;8.716;2023-08-17T05:51:16;7.25;;;4.00;;
22543;SDS011;11438;52.044;8.716;2023-08-17T05:53:42;7.60;;;4.05;;
22543;SDS011;11438;52.044;8.716;2023-08-17T05:56:07;8.65;;;4.15;;
22543;SDS011;11438;52.044;8.716;2023-08-17T05:58:33;6.18;;;4.07;;
22543;SDS011;11438;52.044;8.716;2023-08-17T06:01:05;6.13;;;3.95;;
22543;SDS011;11438;52.044;8.716;2023-08-17T06:03:32;6.47;;;4.03;;
22543;SDS011;11438;52.044;8.716;2023-08-17T06:05:58;6.03;;;3.72;;
22543;SDS011;11438;52.044;8.716;2023-08-17T06:08:24;8.57;;;4.97;;
22543;SDS011;11438;52.044;8.716;2023-08-17T06:10:49;7.57;;;4.47;;
22543;SDS011;11438;52.044;8.716;2023-08-17T06:13:15;7.50;;;4.75;;
22543;SDS011;11438;52.044;8.716;2023-08-17T06:15:40;8.25;;;4.22;;
22543;SDS011;11438;52.044;8.716;2023-08-17T06:18:06;7.03;;;4.68;;
22543;SDS011;11438;52.044;8.716;2023-08-17T06:20:31;7.60;;;4.20;;
22543;SDS011;11438;52.044;8.716;2023-08-17T06:22:57;8.43;;;4.57;;
22543;SDS011;11438;52.044;8.716;2023-08-17T06:25:22;8.00;;;4.28;;
22543;SDS011;11438;52.044;8.716;2023-08-17T06:27:48;8.45;;;5.50;;
22543;SDS011;11438;52.044;8.716;2023-08-17T06:30:14;9.18;;;4.95;;
22543;SDS011;11438;52.044;8.716;2023-08-17T06:32:40;8.95;;;5.13;;
22543;SDS011;11438;52.044;8.716;2023-08-17T06:35:06;8.52;;;4.70;;
22543;SDS011;11438;52.044;8.716;2023-08-17T06:37:32;7.78;;;5.07;;
22543;SDS011;11438;52.044;8.716;2023-08-17T06:39:58;8.55;;;5.43;;
22543;SDS011;11438;52.044;8.716;2023-08-17T06:42:23;8.68;;;5.47;;
22543;SDS011;11438;52.044;8.716;2023-08-17T06:44:49;8.85;;;5.28;;
22543;SDS011;11438;52.044;8.716;2023-08-17T06:47:14;7.15;;;5.20;;
22543;SDS011;11438;52.044;8.716;2023-08-17T06:49:40;9.48;;;4.88;;
22543;SDS011;11438;52.044;8.716;2023-08-17T06:52:05;7.75;;;5.53;;
22543;SDS011;11438;52.044;8.716;2023-08-17T06:54:31;6.78;;;5.03;;
22543;SDS011;11438;52.044;8.716;2023-08-17T06:56:57;7.32;;;4.80;;
22543;SDS011;11438;52.044;8.716;2023-08-17T06:59:23;7.40;;;5.20;;
22543;SDS011;11438;52.044;8.716;2023-08-17T07:01:48;6.25;;;4.18;;
22543;SDS011;11438;52.044;8.716;2023-08-17T07:04:14;7.63;;;4.63;;
22543;SDS011;11438;52.044;8.716;2023-08-17T07:06:39;7.93;;;4.78;;
22543;SDS011;11438;52.044;8.716;2023-08-17T07:09:06;7.70;;;4.93;;
22543;SDS011;11438;52.044;8.716;2023-08-17T07:11:32;6.60;;;4.63;;
22543;SDS011;11438;52.044;8.716;2023-08-17T07:13:57;7.38;;;4.75;;
22543;SDS011;11438;52.044;8.716;2023-08-17T07:16:23;6.45;;;4.90;;
22543;SDS011;11438;52.044;8.716;2023-08-17T07:18:49;5.78;;;4.65;;
22543;SDS011;11438;52.044;8.716;2023-08-17T07:21:14;8.38;;;4.82;;
22543;SDS011;11438;52.044;8.716;2023-08-17T07:23:43;6.63;;;4.50;;
22543;SDS011;11438;52.044;8.716;2023-08-17T07:26:09;8.30;;;5.03;;
22543;SDS011;11438;52.044;8.716;2023-08-17T07:28:35;6.30;;;4.60;;
22543;SDS011;11438;52.044;8.716;2023-08-17T07:31:00;8.07;;;4.90;;
22543;SDS011;11438;52.044;8.716;2023-08-17T07:33:26;5.63;;;4.65;;
22543;SDS011;11438;52.044;8.716;2023-08-17T07:35:52;7.85;;;5.07;;
22543;SDS011;11438;52.044;8.716;2023-08-17T07:38:19;7.50;;;5.22;;
22543;SDS011;11438;52.044;8.716;2023-08-17T07:40:44;7.82;;;4.72;;
22543;SDS011;11438;52.044;8.716;2023-08-17T07:43:10;8.02;;;5.15;;
22543;SDS011;11438;52.044;8.716;2023-08-17T07:45:35;6.35;;;4.45;;
22543;SDS011;11438;52.044;8.716;2023-08-17T07:48:01;5.57;;;4.30;;
22543;SDS011;11438;52.044;8.716;2023-08-17T07:50:27;4.88;;;3.75;;
22543;SDS011;11438;52.044;8.716;2023-08-17T07:52:52;5.93;;;3.47;;
22543;SDS011;11438;52.044;8.716;2023-08-17T07:55:18;5.65;;;3.60;;
22543;SDS011;11438;52.044;8.716;2023-08-17T07:57:43;4.40;;;3.47;;
22543;SDS011;11438;52.044;8.716;2023-08-17T08:00:09;5.22;;;3.45;;
22543;SDS011;11438;52.044;8.716;2023-08-17T08:02:35;6.68;;;3.72;;
22543;SDS011;11438;52.044;8.716;2023-08-17T08:05:00;5.95;;;3.78;;
22543;SDS011;11438;52.044;8.716;2023-08-17T08:07:25;4.65;;;3.72;;
22543;SDS011;11438;52.044;8.716;2023-08-17T08:09:51;5.85;;;3.72;;
22543;SDS011;11438;52.044;8.716;2023-08-17T08:12:16;5.15;;;3.80;;
22543;SDS011;11438;52.044;8.716;2023-08-17T08:14:42;4.32;;;3.40;;
22543;SDS011;11438;52.044;8.716;2023-08-17T08:17:07;6.32;;;3.90;;
22543;SDS011;11438;52.044;8.716;2023-08-17T08:19:33;4.65;;;3.28;;
22543;SDS011;11438;52.044;8.716;2023-08-17T08:21:59;4.75;;;3.33;;
22543;SDS011;11438;52.044;8.716;2023-08-17T08:24:26;7.13;;;3.90;;
22543;SDS011;11438;52.044;8.716;2023-08-17T08:26:56;5.97;;;3.63;;
22543;SDS011;11438;52.044;8.716;2023-08-17T08:29:21;7.88;;;3.65;;
22543;SDS011;11438;52.044;8.716;2023-08-17T08:31:47;4.55;;;3.28;;
22543;SDS011;11438;52.044;8.716;2023-08-17T08:34:12;4.40;;;3.22;;
22543;SDS011;11438;52.044;8.716;2023-08-17T08:36:38;4.38;;;3.38;;
22543;SDS011;11438;52.044;8.716;2023-08-17T08:39:03;6.22;;;3.58;;
22543;SDS011;11438;52.044;8.716;2023-08-17T08:41:29;5.20;;;3.35;;
22543;SDS011;11438;52.044;8.716;2023-08-17T08:43:56;5.40;;;3.28;;
22543;SDS011;11438;52.044;8.716;2023-08-17T08:46:21;5.18;;;3.90;;
22543;SDS011;11438;52.044;8.716;2023-08-17T08:48:49;4.85;;;3.90;;
22543;SDS011;11438;52.044;8.716;2023-08-17T08:51:18;4.43;;;3.65;;
22543;SDS011;11438;52.044;8.716;2023-08-17T08:53:52;5.35;;;3.53;;
22543;SDS011;11438;52.044;8.716;2023-08-17T08:56:26;6.40;;;3.83;;
22543;SDS011;11438;52.044;8.716;2023-08-17T08:58:56;5.45;;;3.38;;
22543;SDS011;11438;52.044;8.716;2023-08-17T09:01:23;5.60;;;3.60;;
22543;SDS011;11438;52.044;8.716;2023-08-17T09:03:50;6.63;;;3.75;;
22543;SDS011;11438;52.044;8.716;2023-08-17T09:06:16;6.25;;;3.80;;
22543;SDS011;11438;52.044;8.716;2023-08-17T09:08:43;5.32;;;3.58;;
22543;SDS011;11438;52.044;8.716;2023-08-17T09:11:10;4.47;;;3.45;;
22543;SDS011;11438;52.044;8.716;2023-08-17T09:13:35;5.57;;;3.42;;
22543;SDS011;11438;52.044;8.716;2023-08-17T09:16:01;6.20;;;3.85;;
22543;SDS011;11438;52.044;8.716;2023-08-17T09:18:26;5.15;;;3.67;;
22543;SDS011;11438;52.044;8.716;2023-08-17T09:20:52;5.30;;;3.67;;
22543;SDS011;11438;52.044;8.716;2023-08-17T09:23:20;4.57;;;3.50;;
22543;SDS011;11438;52.044;8.716;2023-08-17T09:25:47;5.10;;;3.58;;
22543;SDS011;11438;52.044;8.716;2023-08-17T09:28:14;6.13;;;3.67;;
22543;SDS011;11438;52.044;8.716;2023-08-17T09:30:57;5.63;;;3.88;;
22543;SDS011;11438;52.044;8.716;2023-08-17T09:33:24;8.35;;;4.60;;
22543;SDS011;11438;52.044;8.716;2023-08-17T09:35:51;6.85;;;4.40;;
22543;SDS011;11438;52.044;8.716;2023-08-17T09:38:18;5.97;;;4.15;;
22543;SDS011;11438;52.044;8.716;2023-08-17T09:40:44;4.03;;;3.25;;
22543;SDS011;11438;52.044;8.716;2023-08-17T09:43:10;5.05;;;3.85;;
22543;SDS011;11438;52.044;8.716;2023-08-17T09:45:37;5.40;;;4.05;;
22543;SDS011;11438;52.044;8.716;2023-08-17T09:48:03;7.10;;;4.13;;
22543;SDS011;11438;52.044;8.716;2023-08-17T09:50:29;7.57;;;4.57;;
22543;SDS011;11438;52.044;8.716;2023-08-17T09:52:57;6.30;;;4.55;;
22543;SDS011;11438;52.044;8.716;2023-08-17T09:55:23;6.57;;;4.30;;
22543;SDS011;11438;52.044;8.716;2023-08-17T09:57:51;6.03;;;4.32;;
22543;SDS011;11438;52.044;8.716;2023-08-17T10:00:20;6.65;;;4.35;;
22543;SDS011;11438;52.044;8.716;2023-08-17T10:02:49;6.63;;;3.85;;
22543;SDS011;11438;52.044;8.716;2023-08-17T10:05:19;6.15;;;3.65;;
22543;SDS011;11438;52.044;8.716;2023-08-17T10:07:51;5.43;;;4.38;;
22543;SDS011;11438;52.044;8.716;2023-08-17T10:10:21;5.75;;;4.05;;
22543;SDS011;11438;52.044;8.716;2023-08-17T10:15:38;5.72;;;3.10;;
22543;SDS011;11438;52.044;8.716;2023-08-17T10:18:35;5.85;;;3.35;;
22543;SDS011;11438;52.044;8.716;2023-08-17T10:21:18;4.22;;;2.88;;
22543;SDS011;11438;52.044;8.716;2023-08-17T10:23:52;4.53;;;2.75;;
22543;SDS011;11438;52.044;8.716;2023-08-17T10:26:19;3.90;;;3.15;;
22543;SDS011;11438;52.044;8.716;2023-08-17T10:28:46;4.90;;;3.30;;
22543;SDS011;11438;52.044;8.716;2023-08-17T10:31:12;5.00;;;3.38;;
22543;SDS011;11438;52.044;8.716;2023-08-17T10:33:39;4.85;;;3.60;;
22543;SDS011;11438;52.044;8.716;2023-08-17T10:36:08;3.15;;;2.85;;
22543;SDS011;11438;52.044;8.716;2023-08-17T10:38:34;3.45;;;2.95;;
22543;SDS011;11438;52.044;8.716;2023-08-17T10:41:12;4.05;;;2.80;;
22543;SDS011;11438;52.044;8.716;2023-08-17T10:43:58;3.03;;;2.63;;
22543;SDS011;11438;52.044;8.716;2023-08-17T10:46:34;6.13;;;3.80;;
22543;SDS011;11438;52.044;8.716;2023-08-17T10:49:05;5.68;;;3.92;;
22543;SDS011;11438;52.044;8.716;2023-08-17T10:51:32;5.93;;;3.65;;
22543;SDS011;11438;52.044;8.716;2023-08-17T10:54:01;5.05;;;3.42;;
22543;SDS011;11438;52.044;8.716;2023-08-17T10:56:28;4.30;;;3.55;;
22543;SDS011;11438;52.044;8.716;2023-08-17T10:58:54;4.78;;;3.20;;
22543;SDS011;11438;52.044;8.716;2023-08-17T11:01:36;3.80;;;3.25;;
22543;SDS011;11438;52.044;8.716;2023-08-17T11:04:15;5.93;;;3.28;;
22543;SDS011;11438;52.044;8.716;2023-08-17T11:06:44;4.15;;;3.08;;
22543;SDS011;11438;52.044;8.716;2023-08-17T11:09:10;5.70;;;3.50;;
22543;SDS011;11438;52.044;8.716;2023-08-17T11:11:36;5.55;;;3.63;;
22543;SDS011;11438;52.044;8.716;2023-08-17T11:14:02;5.57;;;3.42;;
22543;SDS011;11438;52.044;8.716;2023-08-17T11:16:28;4.18;;;3.20;;
22543;SDS011;11438;52.044;8.716;2023-08-17T11:18:53;4.25;;;3.40;;
22543;SDS011;11438;52.044;8.716;2023-08-17T11:21:22;4.20;;;3.53;;
22543;SDS011;11438;52.044;8.716;2023-08-17T11:23:48;5.70;;;3.45;;
22543;SDS011;11438;52.044;8.716;2023-08-17T11:26:17;4.85;;;3.95;;
22543;SDS011;11438;52.044;8.716;2023-08-17T11:28:43;4.78;;;3.63;;
22543;SDS011;11438;52.044;8.716;2023-08-17T11:31:10;4.63;;;4.13;;
22543;SDS011;11438;52.044;8.716;2023-08-17T11:33:36;5.82;;;3.53;;
22543;SDS011;11438;52.044;8.716;2023-08-17T11:36:04;5.82;;;4.15;;
22543;SDS011;11438;52.044;8.716;2023-08-17T11:38:34;6.03;;;4.13;;
22543;SDS011;11438;52.044;8.716;2023-08-17T11:41:02;5.85;;;3.80;;
22543;SDS011;11438;52.044;8.716;2023-08-17T11:43:28;4.47;;;3.53;;
22543;SDS011;11438;52.044;8.716;2023-08-17T11:45:54;5.70;;;4.00;;
22543;SDS011;11438;52.044;8.716;2023-08-17T11:48:23;3.85;;;3.50;;
22543;SDS011;11438;52.044;8.716;2023-08-17T11:50:49;5.20;;;4.22;;
22543;SDS011;11438;52.044;8.716;2023-08-17T11:53:15;5.93;;;3.78;;
22543;SDS011;11438;52.044;8.716;2023-08-17T11:55:41;5.40;;;3.90;;
22543;SDS011;11438;52.044;8.716;2023-08-17T11:58:07;3.88;;;3.58;;
22543;SDS011;11438;52.044;8.716;2023-08-17T12:00:36;4.13;;;3.17;;
22543;SDS011;11438;52.044;8.716;2023-08-17T12:03:04;4.68;;;3.47;;
22543;SDS011;11438;52.044;8.716;2023-08-17T12:05:30;5.63;;;3.92;;
22543;SDS011;11438;52.044;8.716;2023-08-17T12:07:57;5.13;;;3.67;;
22543;SDS011;11438;52.044;8.716;2023-08-17T12:10:23;4.95;;;3.67;;
22543;SDS011;11438;52.044;8.716;2023-08-17T12:12:49;6.53;;;3.80;;
22543;SDS011;11438;52.044;8.716;2023-08-17T12:15:18;5.65;;;3.80;;
22543;SDS011;11438;52.044;8.716;2023-08-17T12:17:47;5.60;;;3.60;;
22543;SDS011;11438;52.044;8.716;2023-08-17T12:20:17;3.60;;;3.10;;
22543;SDS011;11438;52.044;8.716;2023-08-17T12:22:43;5.15;;;3.90;;
22543;SDS011;11438;52.044;8.716;2023-08-17T12:25:10;5.97;;;4.00;;
22543;SDS011;11438;52.044;8.716;2023-08-17T12:27:35;4.70;;;3.88;;
22543;SDS011;11438;52.044;8.716;2023-08-17T12:30:01;5.57;;;4.18;;
22543;SDS011;11438;52.044;8.716;2023-08-17T12:32:27;4.82;;;3.97;;
22543;SDS011;11438;52.044;8.716;2023-08-17T12:34:52;6.15;;;4.32;;
22543;SDS011;11438;52.044;8.716;2023-08-17T12:37:18;7.20;;;4.22;;
22543;SDS011;11438;52.044;8.716;2023-08-17T12:39:45;8.93;;;4.63;;
22543;SDS011;11438;52.044;8.716;2023-08-17T12:42:12;4.90;;;4.25;;
22543;SDS011;11438;52.044;8.716;2023-08-17T12:44:39;6.95;;;4.22;;
22543;SDS011;11438;52.044;8.716;2023-08-17T12:47:04;6.13;;;4.22;;
22543;SDS011;11438;52.044;8.716;2023-08-17T12:49:30;5.35;;;4.32;;
22543;SDS011;11438;52.044;8.716;2023-08-17T12:51:55;8.18;;;4.38;;
22543;SDS011;11438;52.044;8.716;2023-08-17T12:54:21;5.53;;;3.72;;
22543;SDS011;11438;52.044;8.716;2023-08-17T12:56:46;5.47;;;3.90;;
22543;SDS011;11438;52.044;8.716;2023-08-17T12:59:12;4.72;;;3.70;;
22543;SDS011;11438;52.044;8.716;2023-08-17T13:01:38;4.88;;;4.35;;
22543;SDS011;11438;52.044;8.716;2023-08-17T13:04:04;4.90;;;3.97;;
22543;SDS011;11438;52.044;8.716;2023-08-17T13:06:30;4.43;;;3.92;;
22543;SDS011;11438;52.044;8.716;2023-08-17T13:08:56;5.00;;;3.95;;
22543;SDS011;11438;52.044;8.716;2023-08-17T13:11:21;7.63;;;3.88;;
22543;SDS011;11438;52.044;8.716;2023-08-17T13:13:47;6.03;;;3.55;;
22543;SDS011;11438;52.044;8.716;2023-08-17T13:16:12;5.95;;;3.95;;
22543;SDS011;11438;52.044;8.716;2023-08-17T13:18:38;5.30;;;3.97;;
22543;SDS011;11438;52.044;8.716;2023-08-17T13:21:04;5.03;;;4.28;;
22543;SDS011;11438;52.044;8.716;2023-08-17T13:23:29;3.90;;;3.50;;
22543;SDS011;11438;52.044;8.716;2023-08-17T13:25:55;5.05;;;4.00;;
22543;SDS011;11438;52.044;8.716;2023-08-17T13:28:21;6.30;;;4.30;;
22543;SDS011;11438;52.044;8.716;2023-08-17T13:30:47;5.65;;;3.88;;
22543;SDS011;11438;52.044;8.716;2023-08-17T13:33:12;7.13;;;3.90;;
22543;SDS011;11438;52.044;8.716;2023-08-17T13:35:38;8.02;;;3.83;;
22543;SDS011;11438;52.044;8.716;2023-08-17T13:38:04;4.82;;;3.63;;
22543;SDS011;11438;52.044;8.716;2023-08-17T13:40:30;5.07;;;3.92;;
22543;SDS011;11438;52.044;8.716;2023-08-17T13:42:56;5.75;;;4.32;;
22543;SDS011;11438;52.044;8.716;2023-08-17T13:45:23;5.32;;;3.90;;
22543;SDS011;11438;52.044;8.716;2023-08-17T13:47:49;5.90;;;4.03;;
22543;SDS011;11438;52.044;8.716;2023-08-17T13:50:14;6.97;;;4.15;;
22543;SDS011;11438;52.044;8.716;2023-08-17T13:52:40;4.88;;;4.20;;
22543;SDS011;11438;52.044;8.716;2023-08-17T13:55:05;6.38;;;4.22;;
22543;SDS011;11438;52.044;8.716;2023-08-17T13:57:31;6.28;;;4.18;;
22543;SDS011;11438;52.044;8.716;2023-08-17T13:59:57;6.07;;;3.97;;
22543;SDS011;11438;52.044;8.716;2023-08-17T14:02:22;5.60;;;3.83;;
22543;SDS011;11438;52.044;8.716;2023-08-17T14:04:48;7.95;;;4.50;;
22543;SDS011;11438;52.044;8.716;2023-08-17T14:07:14;7.63;;;4.32;;
22543;SDS011;11438;52.044;8.716;2023-08-17T14:09:39;7.63;;;4.50;;
22543;SDS011;11438;52.044;8.716;2023-08-17T14:12:05;5.45;;;4.13;;
22543;SDS011;11438;52.044;8.716;2023-08-17T14:14:31;4.75;;;3.85;;
22543;SDS011;11438;52.044;8.716;2023-08-17T14:16:56;6.15;;;4.38;;
22543;SDS011;11438;52.044;8.716;2023-08-17T14:19:22;6.75;;;4.20;;
22543;SDS011;11438;52.044;8.716;2023-08-17T14:21:48;5.93;;;3.92;;
22543;SDS011;11438;52.044;8.716;2023-08-17T14:24:14;6.60;;;4.10;;
22543;SDS011;11438;52.044;8.716;2023-08-17T14:26:39;6.60;;;3.63;;
22543;SDS011;11438;52.044;8.716;2023-08-17T14:29:05;7.35;;;3.83;;
22543;SDS011;11438;52.044;8.716;2023-08-17T14:31:30;6.50;;;3.67;;
22543;SDS011;11438;52.044;8.716;2023-08-17T14:33:56;5.40;;;3.95;;
22543;SDS011;11438;52.044;8.716;2023-08-17T14:36:21;6.38;;;3.97;;
22543;SDS011;11438;52.044;8.716;2023-08-17T14:38:47;7.22;;;4.20;;
22543;SDS011;11438;52.044;8.716;2023-08-17T14:41:13;6.38;;;3.92;;
22543;SDS011;11438;52.044;8.716;2023-08-17T14:43:38;7.97;;;4.32;;
22543;SDS011;11438;52.044;8.716;2023-08-17T14:46:04;4.45;;;3.28;;
22543;SDS011;11438;52.044;8.716;2023-08-17T14:48:30;5.93;;;3.80;;
22543;SDS011;11438;52.044;8.716;2023-08-17T14:50:55;7.00;;;4.07;;
22543;SDS011;11438;52.044;8.716;2023-08-17T14:53:21;4.85;;;3.60;;